createdAt,value
2023-03-05T00:02:07.074Z,13.43
2023-03-05T00:04:33.982Z,15.13
2023-03-05T00:07:00.742Z,16.23
2023-03-05T00:09:27.588Z,16.50
2023-03-05T00:11:54.325Z,31.38
2023-03-05T00:14:21.112Z,48.92
2023-03-05T00:16:48.156Z,32.95
2023-03-05T00:19:14.944Z,35.35
2023-03-05T00:21:42.804Z,42.22
2023-03-05T00:24:18.426Z,23.33
2023-03-05T00:26:46.205Z,18.05
2023-03-05T00:29:16.287Z,18.38
2023-03-05T00:31:44.424Z,16.38
2023-03-05T00:34:16.076Z,21.60
2023-03-05T00:36:45.668Z,21.60
2023-03-05T00:39:14.029Z,18.00
2023-03-05T00:41:40.976Z,16.10
2023-03-05T00:44:07.809Z,14.20
2023-03-05T00:46:34.684Z,15.68
2023-03-05T00:49:01.517Z,14.90
2023-03-05T00:51:28.706Z,15.63
2023-03-05T00:53:55.932Z,15.88
2023-03-05T00:56:23.362Z,16.15
2023-03-05T00:58:50.142Z,17.08
2023-03-05T01:01:16.924Z,15.15
2023-03-05T01:03:43.737Z,14.00
2023-03-05T01:06:13.209Z,15.18
2023-03-05T01:08:40.071Z,15.45
2023-03-05T01:11:08.001Z,15.20
2023-03-05T01:13:35.315Z,15.82
2023-03-05T01:16:02.534Z,16.42
2023-03-05T01:18:29.628Z,16.38
2023-03-05T01:20:56.527Z,15.98
2023-03-05T01:23:23.482Z,15.40
2023-03-05T01:25:55.026Z,17.00
2023-03-05T01:28:21.964Z,15.95
2023-03-05T01:30:48.904Z,15.35
2023-03-05T01:33:16.184Z,17.00
2023-03-05T01:35:42.966Z,17.35
2023-03-05T01:38:09.737Z,17.35
2023-03-05T01:40:36.450Z,17.13
2023-03-05T01:43:12.309Z,17.30
2023-03-05T01:45:40.399Z,18.17
2023-03-05T01:48:07.137Z,16.60
2023-03-05T01:50:34.236Z,18.00
2023-03-05T01:53:06.661Z,17.52
2023-03-05T01:55:37.411Z,17.77
2023-03-05T01:58:08.925Z,17.13
2023-03-05T02:00:39.871Z,17.42
2023-03-05T02:03:10.811Z,17.17
2023-03-05T02:05:38.982Z,17.60
2023-03-05T02:08:08.995Z,17.65
2023-03-05T02:10:48.139Z,17.85
2023-03-05T02:13:19.984Z,17.45
2023-03-05T02:15:47.811Z,19.67
2023-03-05T02:18:14.687Z,20.08
2023-03-05T02:20:57.834Z,19.15
2023-03-05T02:23:33.808Z,16.38
2023-03-05T02:26:00.931Z,17.95
2023-03-05T02:28:37.618Z,17.50
2023-03-05T02:31:14.661Z,17.98
2023-03-05T02:33:41.760Z,18.17
2023-03-05T02:36:09.063Z,18.20
2023-03-05T02:38:35.842Z,17.77
2023-03-05T02:41:02.668Z,18.58
2023-03-05T02:43:29.438Z,18.40
2023-03-05T02:45:56.284Z,17.73
2023-03-05T02:48:23.183Z,17.02
2023-03-05T02:50:50.377Z,18.63
2023-03-05T02:53:17.270Z,18.48
2023-03-05T02:55:47.600Z,18.60
2023-03-05T02:58:14.440Z,18.33
2023-03-05T03:00:41.487Z,16.30
2023-03-05T03:03:08.573Z,17.73
2023-03-05T03:05:36.915Z,16.73
2023-03-05T03:08:04.097Z,16.73
2023-03-05T03:10:31.008Z,16.67
2023-03-05T03:12:57.898Z,16.85
2023-03-05T03:15:24.885Z,16.92
2023-03-05T03:17:51.632Z,16.23
2023-03-05T03:20:19.566Z,16.50
2023-03-05T03:22:47.164Z,17.20
2023-03-05T03:25:16.061Z,16.25
2023-03-05T03:27:42.863Z,17.42
2023-03-05T03:30:10.356Z,16.63
2023-03-05T03:32:37.167Z,18.50
2023-03-05T03:35:04.236Z,16.23
2023-03-05T03:37:31.224Z,16.17
2023-03-05T03:39:58.123Z,16.40
2023-03-05T03:42:25.373Z,16.52
2023-03-05T03:44:52.395Z,17.27
2023-03-05T03:47:19.332Z,16.85
2023-03-05T03:49:46.170Z,16.63
2023-03-05T03:52:13.017Z,17.67
2023-03-05T03:54:39.792Z,16.80
2023-03-05T03:57:06.656Z,17.33
2023-03-05T03:59:33.413Z,18.60
2023-03-05T04:02:00.126Z,18.38
2023-03-05T04:04:29.237Z,18.02
2023-03-05T04:06:56.723Z,18.25
2023-03-05T04:09:23.453Z,17.33
2023-03-05T04:11:50.178Z,16.63
2023-03-05T04:14:16.950Z,18.20
2023-03-05T04:16:43.672Z,16.50
2023-03-05T04:19:10.446Z,17.48
2023-03-05T04:21:37.229Z,17.35
2023-03-05T04:24:04.197Z,17.23
2023-03-05T04:26:30.960Z,17.98
2023-03-05T04:28:57.721Z,17.33
2023-03-05T04:31:24.570Z,17.83
2023-03-05T04:33:51.470Z,17.58
2023-03-05T04:36:18.314Z,16.08
2023-03-05T04:38:45.159Z,17.85
2023-03-05T04:41:11.906Z,17.27
2023-03-05T04:43:38.681Z,16.55
2023-03-05T04:46:05.480Z,17.40
2023-03-05T04:48:32.650Z,19.65
2023-03-05T04:50:59.528Z,17.75
2023-03-05T04:53:26.341Z,17.83
2023-03-05T04:55:54.601Z,17.50
2023-03-05T04:58:21.798Z,18.40
2023-03-05T05:00:48.580Z,16.70
2023-03-05T05:03:15.378Z,16.92
2023-03-05T05:05:42.201Z,16.67
2023-03-05T05:08:10.345Z,18.52
2023-03-05T05:10:40.209Z,19.20
2023-03-05T05:13:07.489Z,17.98
2023-03-05T05:15:34.313Z,16.58
2023-03-05T05:18:01.045Z,19.15
2023-03-05T05:20:27.830Z,18.20
2023-03-05T05:22:54.544Z,17.13
2023-03-05T05:25:21.376Z,17.10
2023-03-05T05:27:48.187Z,18.92
2023-03-05T05:30:15.087Z,17.33
2023-03-05T05:32:41.855Z,17.58
2023-03-05T05:35:10.204Z,17.20
2023-03-05T05:37:36.962Z,16.75
2023-03-05T05:40:05.824Z,17.63
2023-03-05T05:42:32.663Z,18.52
2023-03-05T05:44:59.799Z,18.10
2023-03-05T05:47:26.592Z,18.85
2023-03-05T05:49:53.422Z,19.85
2023-03-05T05:52:20.233Z,18.92
2023-03-05T05:54:47.029Z,18.67
2023-03-05T05:57:14.073Z,18.95
2023-03-05T05:59:41.652Z,18.63
2023-03-05T06:02:08.934Z,17.55
2023-03-05T06:04:36.402Z,18.13
2023-03-05T06:07:04.001Z,19.27
2023-03-05T06:09:30.735Z,19.48
2023-03-05T06:11:57.654Z,17.20
2023-03-05T06:14:24.564Z,17.10
2023-03-05T06:16:51.350Z,16.75
2023-03-05T06:19:18.226Z,16.33
2023-03-05T06:21:44.949Z,17.13
2023-03-05T06:24:12.501Z,17.02
2023-03-05T06:26:39.381Z,16.38
2023-03-05T06:29:06.142Z,17.23
2023-03-05T06:31:33.435Z,16.17
2023-03-05T06:34:01.692Z,16.77
2023-03-05T06:36:29.082Z,15.35
2023-03-05T06:38:57.019Z,15.27
2023-03-05T06:41:27.109Z,15.40
2023-03-05T06:43:54.582Z,15.77
2023-03-05T06:46:29.433Z,14.45
2023-03-05T06:48:58.959Z,15.15
2023-03-05T06:51:31.252Z,14.52
2023-03-05T06:54:01.777Z,15.60
2023-03-05T06:56:28.653Z,14.53
2023-03-05T06:58:55.577Z,16.00
2023-03-05T07:01:23.752Z,16.65
2023-03-05T07:03:52.291Z,16.00
2023-03-05T07:06:20.389Z,14.98
2023-03-05T07:08:47.662Z,16.92
2023-03-05T07:11:20.483Z,16.75
2023-03-05T07:13:48.248Z,15.90
2023-03-05T07:16:21.972Z,16.20
2023-03-05T07:18:48.945Z,15.73
2023-03-05T07:21:19.708Z,15.60
2023-03-05T07:23:46.754Z,17.70
2023-03-05T07:26:14.286Z,15.30
2023-03-05T07:28:41.334Z,16.55
2023-03-05T07:31:13.185Z,16.10
2023-03-05T07:33:40.186Z,17.20
2023-03-05T07:36:11.191Z,16.40
2023-03-05T07:38:38.059Z,15.88
2023-03-05T07:41:11.278Z,15.95
2023-03-05T07:43:38.403Z,15.18
2023-03-05T07:46:11.679Z,15.55
2023-03-05T07:48:38.729Z,15.00
2023-03-05T07:51:08.214Z,15.20
2023-03-05T07:53:35.074Z,14.82
2023-03-05T07:56:02.468Z,15.98
2023-03-05T07:58:29.439Z,16.27
2023-03-05T08:00:56.169Z,15.65
2023-03-05T08:03:22.956Z,15.68
2023-03-05T08:05:49.684Z,16.05
2023-03-05T08:08:16.654Z,16.00
2023-03-05T08:10:43.401Z,17.55
2023-03-05T08:13:10.493Z,16.17
2023-03-05T08:15:38.318Z,16.75
2023-03-05T08:18:05.358Z,17.67
2023-03-05T08:20:35.630Z,16.63
2023-03-05T08:23:03.403Z,17.05
2023-03-05T08:25:30.247Z,16.52
2023-03-05T08:27:57.129Z,14.77
2023-03-05T08:30:27.388Z,16.58
2023-03-05T08:32:55.520Z,16.95
2023-03-05T08:35:22.830Z,16.33
2023-03-05T08:37:49.686Z,16.13
2023-03-05T08:40:18.246Z,16.23
2023-03-05T08:42:45.577Z,15.93
2023-03-05T08:45:12.585Z,16.42
2023-03-05T08:47:39.686Z,16.15
2023-03-05T08:50:07.158Z,16.02
2023-03-05T08:52:34.659Z,17.00
2023-03-05T08:55:01.468Z,15.93
2023-03-05T08:57:28.203Z,15.25
2023-03-05T08:59:54.898Z,15.90
2023-03-05T09:02:21.777Z,15.40
2023-03-05T09:04:48.634Z,14.85
2023-03-05T09:07:15.435Z,15.10
2023-03-05T09:09:42.239Z,15.38
2023-03-05T09:12:12.083Z,14.85
2023-03-05T09:14:40.515Z,15.00
2023-03-05T09:17:07.476Z,15.23
2023-03-05T09:19:34.463Z,14.48
2023-03-05T09:22:01.261Z,15.07
2023-03-05T09:24:28.038Z,14.65
2023-03-05T09:26:58.812Z,13.20
2023-03-05T09:29:26.869Z,12.95
2023-03-05T09:31:54.000Z,13.90
2023-03-05T09:34:21.569Z,13.15
2023-03-05T09:36:48.489Z,13.43
2023-03-05T09:39:15.987Z,12.77
2023-03-05T09:42:04.083Z,12.73
2023-03-05T09:45:00.767Z,11.48
2023-03-05T09:47:44.733Z,11.05
2023-03-05T09:50:33.353Z,11.52
2023-03-05T09:53:12.191Z,11.82
2023-03-05T09:55:52.543Z,11.00
2023-03-05T09:58:37.419Z,11.80
2023-03-05T10:01:06.305Z,9.88
2023-03-05T10:03:47.924Z,10.15
2023-03-05T10:06:28.886Z,10.70
2023-03-05T10:09:09.808Z,10.57
2023-03-05T10:11:48.433Z,9.55
2023-03-05T10:14:48.546Z,9.48
2023-03-05T10:17:36.201Z,8.68
2023-03-05T10:20:15.103Z,7.25
2023-03-05T10:23:37.699Z,7.47
2023-03-05T10:26:20.736Z,7.05
2023-03-05T10:28:55.644Z,7.30
2023-03-05T10:31:43.982Z,7.95
2023-03-05T10:34:28.157Z,8.75
2023-03-05T10:37:23.215Z,8.45
2023-03-05T10:39:55.807Z,8.15
2023-03-05T10:42:37.867Z,7.57
2023-03-05T10:45:39.238Z,7.38
2023-03-05T10:48:14.906Z,7.65
2023-03-05T10:50:48.329Z,8.20
2023-03-05T10:53:28.946Z,7.85
2023-03-05T10:55:58.420Z,7.87
2023-03-05T10:58:25.527Z,7.80
2023-03-05T11:01:04.917Z,8.02
2023-03-05T11:03:54.898Z,7.70
2023-03-05T11:06:43.066Z,7.43
2023-03-05T11:09:28.003Z,7.50
2023-03-05T11:12:19.704Z,7.22
2023-03-05T11:14:47.982Z,7.00
2023-03-05T11:17:37.973Z,7.10
2023-03-05T11:20:23.659Z,6.70
2023-03-05T11:23:24.022Z,7.45
2023-03-05T11:25:53.364Z,6.80
2023-03-05T11:28:32.986Z,7.18
2023-03-05T11:31:23.664Z,8.23
2023-03-05T11:34:25.246Z,6.47
2023-03-05T11:36:54.467Z,7.53
2023-03-05T11:39:25.963Z,7.80
2023-03-05T11:42:15.468Z,7.00
2023-03-05T11:44:49.366Z,8.00
2023-03-05T11:47:46.528Z,8.13
2023-03-05T11:50:16.828Z,8.18
2023-03-05T11:53:07.809Z,7.60
2023-03-05T11:55:54.520Z,7.45
2023-03-05T11:58:32.884Z,6.78
2023-03-05T12:01:01.795Z,8.05
2023-03-05T12:03:35.048Z,6.97
2023-03-05T12:06:34.398Z,7.22
2023-03-05T12:09:07.902Z,7.53
2023-03-05T12:11:36.718Z,7.50
2023-03-05T12:14:06.202Z,7.45
2023-03-05T12:16:48.508Z,7.30
2023-03-05T12:19:34.672Z,7.25
2023-03-05T12:22:19.010Z,7.10
2023-03-05T12:24:46.120Z,6.32
2023-03-05T12:27:16.138Z,6.38
2023-03-05T12:29:45.966Z,6.57
2023-03-05T12:32:34.125Z,7.22
2023-03-05T12:35:04.516Z,6.15
2023-03-05T12:37:31.329Z,7.45
2023-03-05T12:40:08.803Z,6.68
2023-03-05T12:42:43.869Z,7.55
2023-03-05T12:45:14.587Z,7.05
2023-03-05T12:47:48.447Z,6.38
2023-03-05T12:50:30.269Z,6.35
2023-03-05T12:53:11.810Z,6.78
2023-03-05T12:55:47.457Z,7.13
2023-03-05T12:58:17.113Z,6.30
2023-03-05T13:00:52.364Z,7.35
2023-03-05T13:03:27.153Z,6.88
2023-03-05T13:05:56.660Z,7.25
2023-03-05T13:08:37.748Z,6.88
2023-03-05T13:11:16.530Z,6.97
2023-03-05T13:13:45.203Z,7.80
2023-03-05T13:16:25.073Z,8.50
2023-03-05T13:18:53.350Z,7.85
2023-03-05T13:21:26.727Z,7.63
2023-03-05T13:23:59.176Z,7.63
2023-03-05T13:26:45.977Z,6.93
2023-03-05T13:29:21.152Z,7.30
2023-03-05T13:31:52.204Z,6.88
2023-03-05T13:34:22.205Z,7.05
2023-03-05T13:37:15.009Z,7.70
2023-03-05T13:39:48.504Z,6.72
2023-03-05T13:42:38.914Z,6.97
2023-03-05T13:45:21.970Z,7.03
2023-03-05T13:47:56.107Z,6.95
2023-03-05T13:50:28.793Z,7.70
2023-03-05T13:52:58.371Z,6.82
2023-03-05T13:55:26.101Z,6.10
2023-03-05T13:57:55.698Z,5.65
2023-03-05T14:00:28.576Z,5.93
2023-03-05T14:02:59.570Z,5.50
2023-03-05T14:05:27.607Z,5.50
2023-03-05T14:07:56.861Z,5.35
2023-03-05T14:10:26.462Z,5.60
2023-03-05T14:12:53.598Z,5.57
2023-03-05T14:15:22.742Z,5.20
2023-03-05T14:17:49.663Z,5.70
2023-03-05T14:20:28.099Z,5.38
2023-03-05T14:23:00.372Z,5.43
2023-03-05T14:25:38.947Z,5.68
2023-03-05T14:28:14.464Z,5.25
2023-03-05T14:30:49.119Z,4.70
2023-03-05T14:33:26.135Z,5.32
2023-03-05T14:35:53.990Z,5.28
2023-03-05T14:38:25.357Z,5.40
2023-03-05T14:43:18.846Z,4.63
2023-03-05T14:45:46.778Z,4.85
2023-03-05T14:48:16.625Z,5.13
2023-03-05T14:50:53.700Z,5.18
2023-03-05T14:53:25.819Z,5.40
2023-03-05T14:55:57.158Z,4.90
2023-03-05T15:00:57.160Z,4.25
2023-03-05T15:03:24.066Z,4.57
2023-03-05T15:05:53.878Z,4.40
2023-03-05T15:08:24.371Z,4.13
2023-03-05T15:10:52.413Z,4.13
2023-03-05T15:13:19.877Z,3.40
2023-03-05T15:15:50.521Z,3.70
2023-03-05T15:18:20.476Z,3.35
2023-03-05T15:20:49.016Z,4.07
2023-03-05T15:23:16.378Z,4.32
2023-03-05T15:25:43.495Z,4.18
2023-03-05T15:28:10.325Z,4.05
2023-03-05T15:30:40.066Z,4.47
2023-03-05T15:33:10.559Z,3.38
2023-03-05T15:35:37.664Z,3.37
2023-03-05T15:38:05.476Z,3.15
2023-03-05T15:40:33.040Z,3.45
2023-03-05T15:43:00.610Z,3.42
2023-03-05T15:45:31.440Z,3.78
2023-03-05T15:47:58.780Z,2.90
2023-03-05T15:50:25.854Z,3.20
2023-03-05T15:52:54.027Z,3.75
2023-03-05T15:55:21.106Z,3.20
2023-03-05T15:57:50.307Z,3.47
2023-03-05T16:00:24.876Z,3.47
2023-03-05T16:02:52.488Z,3.40
2023-03-05T16:05:19.362Z,2.92
2023-03-05T16:07:50.297Z,3.00
2023-03-05T16:10:22.466Z,3.00
2023-03-05T16:12:52.520Z,2.90
2023-03-05T16:15:21.655Z,3.15
2023-03-05T16:17:53.207Z,2.75
2023-03-05T16:20:21.096Z,3.03
2023-03-05T16:22:48.179Z,2.95
2023-03-05T16:25:15.231Z,2.92
2023-03-05T16:27:42.017Z,3.35
2023-03-05T16:30:10.598Z,3.60
2023-03-05T16:32:38.644Z,2.42
2023-03-05T16:35:06.125Z,2.40
2023-03-05T16:37:32.892Z,2.60
2023-03-05T16:39:59.864Z,3.10
2023-03-05T16:42:26.733Z,2.90
2023-03-05T16:44:53.592Z,2.42
2023-03-05T16:47:20.489Z,2.78
2023-03-05T16:49:47.328Z,2.65
2023-03-05T16:52:19.187Z,2.50
2023-03-05T16:54:47.153Z,2.45
2023-03-05T16:57:14.683Z,3.47
2023-03-05T16:59:41.655Z,6.72
2023-03-05T17:02:08.454Z,31.92
2023-03-05T17:04:35.390Z,23.45
2023-03-05T17:07:04.237Z,29.85
2023-03-05T17:09:31.303Z,23.05
2023-03-05T17:11:58.158Z,61.15
2023-03-05T17:14:24.912Z,29.27
2023-03-05T17:16:51.730Z,13.32
2023-03-05T17:19:18.841Z,4.85
2023-03-05T17:21:45.724Z,3.38
2023-03-05T17:24:12.513Z,4.30
2023-03-05T17:26:39.456Z,3.60
2023-03-05T17:29:06.623Z,2.70
2023-03-05T17:31:33.636Z,4.10
2023-03-05T17:34:00.694Z,2.28
2023-03-05T17:36:27.638Z,1.77
2023-03-05T17:38:54.754Z,2.83
2023-03-05T17:41:22.373Z,3.40
2023-03-05T17:43:49.728Z,2.20
2023-03-05T17:46:16.931Z,2.22
2023-03-05T17:48:44.425Z,2.00
2023-03-05T17:51:13.136Z,2.08
2023-03-05T17:53:40.915Z,2.03
2023-03-05T17:56:09.941Z,2.10
2023-03-05T17:58:36.951Z,2.03
2023-03-05T18:01:06.054Z,2.50
2023-03-05T18:03:32.877Z,1.92
2023-03-05T18:05:59.655Z,2.22
2023-03-05T18:08:26.465Z,1.75
2023-03-05T18:10:54.233Z,1.70
2023-03-05T18:13:21.100Z,1.80
2023-03-05T18:15:47.960Z,1.50
2023-03-05T18:18:16.387Z,1.45
2023-03-05T18:20:43.771Z,1.50
2023-03-05T18:23:10.921Z,1.65
2023-03-05T18:25:37.718Z,1.58
2023-03-05T18:28:08.431Z,20.58
2023-03-05T18:30:36.246Z,12.00
2023-03-05T18:33:03.210Z,4.35
2023-03-05T18:35:30.316Z,5.88
2023-03-05T18:37:57.764Z,14.40
2023-03-05T18:40:27.497Z,6.00
2023-03-05T18:42:54.863Z,5.00
2023-03-05T18:45:22.965Z,2.72
2023-03-05T18:47:54.101Z,1.67
2023-03-05T18:50:24.370Z,6.53
2023-03-05T18:52:51.567Z,5.20
2023-03-05T18:55:21.460Z,4.78
2023-03-05T18:57:49.303Z,2.55
2023-03-05T19:00:26.245Z,1.70
2023-03-05T19:02:53.803Z,1.63
2023-03-05T19:05:21.016Z,2.15
2023-03-05T19:07:48.411Z,2.40
2023-03-05T19:10:16.392Z,3.00
2023-03-05T19:12:49.922Z,3.53
2023-03-05T19:15:17.456Z,2.85
2023-03-05T19:17:44.282Z,2.50
2023-03-05T19:20:14.400Z,2.88
2023-03-05T19:22:41.169Z,3.00
2023-03-05T19:25:09.240Z,3.10
2023-03-05T19:27:36.402Z,4.07
2023-03-05T19:30:04.769Z,4.50
2023-03-05T19:32:31.661Z,4.80
2023-03-05T19:34:58.830Z,4.45
2023-03-05T19:37:26.203Z,4.95
2023-03-05T19:39:53.091Z,4.93
2023-03-05T19:42:20.229Z,19.92
2023-03-05T19:44:47.035Z,9.98
2023-03-05T19:47:13.781Z,8.02
2023-03-05T19:49:40.576Z,5.75
2023-03-05T19:52:07.685Z,5.15
2023-03-05T19:54:34.573Z,5.55
2023-03-05T19:57:01.366Z,9.40
2023-03-05T19:59:28.137Z,10.93
2023-03-05T20:01:57.512Z,10.05
2023-03-05T20:04:25.245Z,7.90
2023-03-05T20:06:52.784Z,7.07
2023-03-05T20:09:19.869Z,11.48
2023-03-05T20:11:47.235Z,17.15
2023-03-05T20:14:14.805Z,12.88
2023-03-05T20:16:43.347Z,26.33
2023-03-05T20:19:16.482Z,31.27
2023-03-05T20:21:44.312Z,36.72
2023-03-05T20:24:16.797Z,28.83
2023-03-05T20:26:44.891Z,69.00
2023-03-05T20:29:14.882Z,68.60
2023-03-05T20:31:43.832Z,58.05
2023-03-05T20:34:13.126Z,52.50
2023-03-05T20:36:40.635Z,15.55
2023-03-05T20:39:07.791Z,5.78
2023-03-05T20:41:36.529Z,4.68
2023-03-05T20:44:04.035Z,3.60
2023-03-05T20:46:36.478Z,3.85
2023-03-05T20:49:04.689Z,3.40
2023-03-05T20:51:35.119Z,3.10
2023-03-05T20:54:06.980Z,3.65
2023-03-05T20:56:35.186Z,3.35
2023-03-05T20:59:04.729Z,3.22
2023-03-05T21:01:33.433Z,3.65
2023-03-05T21:04:02.806Z,3.83
2023-03-05T21:06:31.543Z,4.70
2023-03-05T21:08:59.214Z,4.20
2023-03-05T21:11:26.390Z,3.05
2023-03-05T21:13:53.158Z,2.80
2023-03-05T21:16:25.919Z,2.65
2023-03-05T21:18:53.485Z,3.60
2023-03-05T21:21:20.529Z,2.45
2023-03-05T21:23:47.447Z,3.17
2023-03-05T21:26:14.647Z,2.72
2023-03-05T21:28:41.588Z,2.83
2023-03-05T21:31:11.508Z,2.97
2023-03-05T21:33:38.379Z,3.85
2023-03-05T21:36:05.729Z,5.60
2023-03-05T21:38:34.228Z,3.35
2023-03-05T21:41:01.857Z,2.85
2023-03-05T21:43:31.207Z,3.05
2023-03-05T21:46:00.691Z,3.25
2023-03-05T21:48:27.524Z,2.92
2023-03-05T21:50:55.394Z,3.25
2023-03-05T21:53:22.545Z,3.42
2023-03-05T21:56:05.226Z,3.53
2023-03-05T21:58:33.436Z,3.97
2023-03-05T22:01:00.941Z,3.60
2023-03-05T22:03:28.460Z,3.05
2023-03-05T22:05:56.398Z,3.42
2023-03-05T22:08:23.785Z,3.78
2023-03-05T22:10:50.972Z,3.38
2023-03-05T22:13:20.175Z,3.10
2023-03-05T22:15:49.906Z,3.10
2023-03-05T22:18:20.105Z,3.63
2023-03-05T22:20:47.736Z,3.33
2023-03-05T22:23:15.271Z,3.20
2023-03-05T22:25:42.749Z,3.45
2023-03-05T22:28:11.211Z,3.55
2023-03-05T22:30:45.735Z,2.85
2023-03-05T22:33:12.687Z,2.42
2023-03-05T22:35:40.888Z,2.88
2023-03-05T22:38:12.474Z,2.38
2023-03-05T22:40:44.611Z,2.70
2023-03-05T22:43:12.459Z,2.33
2023-03-05T22:45:39.640Z,2.88
2023-03-05T22:48:06.824Z,2.60
2023-03-05T22:50:33.613Z,3.00
2023-03-05T22:53:00.358Z,2.58
2023-03-05T22:55:27.110Z,2.50
2023-03-05T22:57:53.880Z,3.05
2023-03-05T23:00:26.884Z,3.03
2023-03-05T23:02:54.086Z,2.70
2023-03-05T23:05:21.689Z,2.28
2023-03-05T23:07:49.365Z,2.50
2023-03-05T23:10:18.053Z,2.08
2023-03-05T23:12:49.479Z,2.10
2023-03-05T23:17:44.045Z,2.22
2023-03-05T23:20:12.279Z,1.92
2023-03-05T23:22:39.883Z,2.42
2023-03-05T23:25:07.481Z,2.30
2023-03-05T23:27:34.304Z,2.20
2023-03-05T23:30:19.816Z,2.08
2023-03-05T23:32:59.181Z,2.45
2023-03-05T23:35:31.568Z,2.50
2023-03-05T23:37:59.917Z,2.53
2023-03-05T23:40:32.163Z,2.83
2023-03-05T23:42:59.066Z,3.10
2023-03-05T23:45:26.375Z,2.80
2023-03-05T23:47:53.323Z,3.55
2023-03-05T23:50:26.119Z,3.15
2023-03-05T23:52:54.380Z,3.88
2023-03-05T23:55:24.713Z,3.22
2023-03-05T23:57:52.446Z,3.67
